M\v Kiran Anatolia — 9HA3365 — position and weather

sailwx.info

Track history (hours):
 
Tides and Currents Weather Stations Pressure Air Temp Water Temp Dewpoint Dewpoint Depression Visibility Wind Speed Wind Dir Waves Ship Positions

M\v Kiran Anatolia

Last reported at 2018-Apr-21 19:00 UTC. Time now 2018-Apr-21 19:26 UTC.
Position N 53°39' E 009°31'.

Length 198 m; draft 13.6 m.

Type: Ship. MMSI: 229478000.

Date/timePositionNaut miles runAvg speedWind from/ knotsBaromVisibWave heightAir tempDewpointWater temp
2018-Apr-21 19:00N 53°39' E 009°31'2 4.5
2018-Apr-21 18:30N 53°42' E 009°30'4 7.6
2018-Apr-21 18:00N 53°44' E 009°26'4 8.4
2018-Apr-21 17:31N 53°48' E 009°23'510.8
2018-Apr-21 17:00N 53°52' E 009°16'510.4
2018-Apr-21 16:30N 53°53' E 009°07'510.1
2018-Apr-21 16:00N 53°51' E 008°59'611.6
2018-Apr-21 15:30N 53°50' E 008°50'5 9.5
2018-Apr-21 15:01N 53°53' E 008°43'611.5
2018-Apr-21 14:30N 53°57' E 008°37'612.0
2018-Apr-21 14:00N 53°59' E 008°27'612.4
2018-Apr-21 13:30N 53°60' E 008°16'612.2
2018-Apr-21 13:00N 53°59' E 008°06'612.4
2018-Apr-21 12:30N 54°01' E 007°56'611.8
2018-Apr-21 12:00N 54°03' E 007°47'1 0.9
2018-Apr-21 10:37N 54°04' E 007°46'0 0.3
2018-Apr-21 10:04N 54°04' E 007°46'0 0.2
2018-Apr-21 09:58N 54°04' E 007°46'0 0.0
2018-Apr-21 09:07N 54°04' E 007°45'0 0.1
2018-Apr-21 08:55N 54°04' E 007°45'0 0.0
2018-Apr-21 07:52N 54°04' E 007°45'0 0.0
2018-Apr-21 07:25N 54°04' E 007°45'0 0.0
2018-Apr-21 06:58N 54°04' E 007°45'0 0.0
2018-Apr-21 06:28N 54°04' E 007°45'0 0.0
2018-Apr-21 05:58N 54°04' E 007°45'0 0.0
2018-Apr-21 05:28N 54°04' E 007°45'0 0.1
2018-Apr-21 03:10N 54°04' E 007°46'0 0.1
2018-Apr-21 02:52N 54°04' E 007°46'0 0.0
2018-Apr-21 02:04N 54°04' E 007°46'0 0.0
2018-Apr-21 01:16N 54°04' E 007°46'0 0.0
2018-Apr-21 00:46N 54°04' E 007°46'0 0.0
2018-Apr-21 00:25N 54°04' E 007°46'0 0.0
2018-Apr-20 23:58N 54°04' E 007°46'0 0.0
2018-Apr-20 23:28N 54°04' E 007°46'0 0.0
2018-Apr-20 22:49N 54°04' E 007°46'0 0.0
2018-Apr-20 22:28N 54°04' E 007°46'0 0.1
2018-Apr-20 21:04N 54°04' E 007°45'0 0.0
2018-Apr-20 20:40N 54°04' E 007°45'0 0.0
2018-Apr-20 19:10N 54°04' E 007°45'0 0.1
2018-Apr-20 18:58N 54°04' E 007°45'0 0.0
2018-Apr-20 18:28N 54°04' E 007°45'0 0.0
2018-Apr-20 12:25N 54°04' E 007°46'0 0.0
2018-Apr-20 11:49N 54°04' E 007°46'0 0.0
2018-Apr-20 11:28N 54°04' E 007°46'0 0.0
2018-Apr-20 10:43N 54°04' E 007°46'0 0.0
2018-Apr-20 10:28N 54°04' E 007°46'0 0.1
2018-Apr-20 08:50N 54°04' E 007°46'0 0.0
2018-Apr-20 07:20N 54°04' E 007°45'0 0.0
2018-Apr-20 06:59N 54°04' E 007°45'0 0.0
2018-Apr-20 06:29N 54°04' E 007°45'0 0.0
2018-Apr-20 05:59N 54°04' E 007°45'0 0.0
2018-Apr-20 05:29N 54°04' E 007°45'0 0.0
2018-Apr-20 04:59N 54°04' E 007°45'0 0.0
2018-Apr-20 04:23N 54°04' E 007°45'0 0.0
2018-Apr-20 03:59N 54°04' E 007°45'0 0.1
2018-Apr-20 03:26N 54°04' E 007°45'0 0.3
2018-Apr-20 02:59N 54°04' E 007°46'0 0.2
2018-Apr-20 02:29N 54°04' E 007°46'0 0.0
2018-Apr-20 01:59N 54°04' E 007°46'0 0.0
2018-Apr-20 01:29N 54°04' E 007°46'0 0.0
2018-Apr-20 00:59N 54°04' E 007°46'0 0.0
2018-Apr-20 00:29N 54°04' E 007°46'0 0.0
2018-Apr-19 23:56N 54°04' E 007°46'0 0.1
2018-Apr-19 23:29N 54°04' E 007°46'0 0.0
2018-Apr-19 22:59N 54°04' E 007°46'0 0.2
2018-Apr-19 22:14N 54°05' E 007°46'0 0.3
2018-Apr-19 21:41N 54°04' E 007°45'0 0.0
2018-Apr-19 21:26N 54°04' E 007°45'0 0.0
2018-Apr-19 20:47N 54°04' E 007°45'0 0.1
2018-Apr-19 20:17N 54°04' E 007°45'0 0.0
2018-Apr-19 11:32N 54°04' E 007°46'0 0.1
2018-Apr-19 11:29N 54°04' E 007°46'0 0.0
2018-Apr-19 10:53N 54°04' E 007°46'0 0.0
2018-Apr-19 10:29N 54°04' E 007°46'0 0.0
2018-Apr-19 09:59N 54°04' E 007°46'0 0.1
2018-Apr-19 09:29N 54°04' E 007°46'0 0.3
2018-Apr-19 08:59N 54°04' E 007°45'0 0.1
2018-Apr-19 08:29N 54°04' E 007°45'0 0.0
2018-Apr-19 07:59N 54°04' E 007°45'0 0.0
2018-Apr-19 07:29N 54°04' E 007°45'0 0.0
2018-Apr-19 06:59N 54°04' E 007°45'0 0.0
2018-Apr-19 06:29N 54°04' E 007°45'0 0.0
2018-Apr-19 05:59N 54°04' E 007°45'0 0.0
2018-Apr-19 05:29N 54°04' E 007°45'0 0.0
2018-Apr-19 04:59N 54°04' E 007°45'0 0.0
2018-Apr-19 04:29N 54°04' E 007°45'0 0.0
2018-Apr-19 03:59N 54°04' E 007°45'0 0.0
2018-Apr-19 03:29N 54°04' E 007°45'0 0.0
2018-Apr-19 02:56N 54°04' E 007°45'0 0.0
2018-Apr-19 02:29N 54°04' E 007°45'0 0.2
2018-Apr-19 01:59N 54°05' E 007°46'0 0.1
2018-Apr-19 01:23N 54°04' E 007°46'0 0.1
2018-Apr-19 00:59N 54°04' E 007°46'0 0.1
2018-Apr-19 00:23N 54°04' E 007°46'0 0.0
2018-Apr-18 23:56N 54°04' E 007°46'0 0.0
2018-Apr-18 23:17N 54°04' E 007°46'0 0.0
2018-Apr-18 22:59N 54°04' E 007°46'0 0.0
2018-Apr-18 09:52N 54°04' E 007°46'0 0.0
2018-Apr-18 09:28N 54°04' E 007°46'0 0.0
2018-Apr-18 08:58N 54°04' E 007°46'0 0.1
2018-Apr-18 08:28N 54°04' E 007°46'0 0.1
2018-Apr-18 04:19N 54°04' E 007°45'0 0.0
2018-Apr-18 02:40N 54°05' E 007°46'0 0.2
2018-Apr-18 02:19N 54°05' E 007°46'0 0.1
2018-Apr-18 01:52N 54°05' E 007°46'0 0.1
2018-Apr-18 01:07N 54°05' E 007°46'0 0.1
2018-Apr-18 00:55N 54°05' E 007°46'0 0.1
2018-Apr-18 00:22N 54°04' E 007°46'0 0.1
2018-Apr-17 23:55N 54°04' E 007°46'0 0.0
2018-Apr-17 22:55N 54°04' E 007°46'0 0.0
2018-Apr-17 22:25N 54°04' E 007°46'0 0.0
2018-Apr-17 21:46N 54°04' E 007°46'0 0.0
2018-Apr-17 21:22N 54°04' E 007°46'0 0.0
2018-Apr-17 20:58N 54°04' E 007°46'0 0.0
2018-Apr-17 09:07N 54°04' E 007°46'0 0.0
2018-Apr-17 08:58N 54°04' E 007°46'0 0.0
2018-Apr-17 08:25N 54°04' E 007°46'0 0.0
2018-Apr-17 07:58N 54°04' E 007°46'0 0.4
2018-Apr-17 07:25N 54°05' E 007°46'0 0.2
2018-Apr-17 06:58N 54°04' E 007°45'0 0.0
2018-Apr-17 06:28N 54°04' E 007°45'0 0.0
2018-Apr-17 05:58N 54°04' E 007°45'0 0.0
2018-Apr-17 05:28N 54°04' E 007°45'0 0.0
2018-Apr-17 04:52N 54°04' E 007°45'0 0.0
2018-Apr-17 04:28N 54°04' E 007°45'0 0.0
2018-Apr-17 03:46N 54°04' E 007°45'0 0.0
2018-Apr-17 03:28N 54°04' E 007°45'0 0.0
2018-Apr-17 02:37N 54°04' E 007°45'0 0.0
2018-Apr-17 02:25N 54°04' E 007°45'0 0.0
2018-Apr-17 01:55N 54°04' E 007°45'0 0.2
2018-Apr-17 01:25N 54°05' E 007°46'0 0.2
2018-Apr-17 00:25N 54°04' E 007°46'0 0.1
2018-Apr-16 23:58N 54°04' E 007°46'0 0.0
2018-Apr-16 23:19N 54°04' E 007°46'0 0.1
2018-Apr-16 22:46N 54°04' E 007°46'0 0.0
2018-Apr-16 22:19N 54°04' E 007°46'0 0.0
2018-Apr-16 21:13N 54°04' E 007°46'0 0.0
2018-Apr-16 20:58N 54°04' E 007°46'0 0.0
2018-Apr-16 20:22N 54°04' E 007°46'0 0.1
2018-Apr-16 18:13N 54°04' E 007°45'0 0.1
2018-Apr-16 17:55N 54°04' E 007°45'0 0.0
2018-Apr-16 17:25N 54°04' E 007°45'0 0.0
2018-Apr-16 16:58N 54°04' E 007°45'0 0.0
2018-Apr-16 15:28N 54°04' E 007°45'0 0.1
2018-Apr-16 14:58N 54°04' E 007°45'0 0.1
2018-Apr-16 14:25N 54°04' E 007°45'0 0.0
2018-Apr-16 13:58N 54°04' E 007°45'0 0.1
2018-Apr-16 13:01N 54°05' E 007°46'0 0.1
2018-Apr-16 12:40N 54°05' E 007°46'0 0.0
2018-Apr-16 12:19N 54°05' E 007°46'0 0.1
2018-Apr-16 11:58N 54°05' E 007°46'0 0.1
2018-Apr-16 11:28N 54°05' E 007°46'0 0.0
2018-Apr-16 10:52N 54°04' E 007°46'0 0.0
2018-Apr-16 09:49N 54°04' E 007°46'0 0.0
2018-Apr-16 09:22N 54°04' E 007°46'0 0.0
2018-Apr-16 08:58N 54°04' E 007°46'0 0.0
2018-Apr-16 08:19N 54°04' E 007°46'0 0.1
2018-Apr-16 06:55N 54°04' E 007°45'0 0.1
2018-Apr-16 06:13N 54°04' E 007°45'0 0.0
2018-Apr-16 05:43N 54°04' E 007°45'0 0.1
2018-Apr-16 05:25N 54°04' E 007°45'0 0.1
2018-Apr-16 04:58N 54°04' E 007°45'0 0.0
2018-Apr-16 04:22N 54°04' E 007°45'0 0.1
2018-Apr-16 03:55N 54°04' E 007°45'0 0.0
2018-Apr-16 03:28N 54°04' E 007°45'0 0.0
2018-Apr-16 02:55N 54°04' E 007°45'0 0.0
2018-Apr-16 02:28N 54°04' E 007°45'0 0.0
2018-Apr-16 01:22N 54°05' E 007°45'0 0.0
2018-Apr-16 00:55N 54°05' E 007°45'0 0.2
2018-Apr-16 00:28N 54°04' E 007°45'2 2.9
2018-Apr-15 23:56N 54°03' E 007°46'4 7.1
2018-Apr-15 23:20N 53°59' E 007°46'611.6
2018-Apr-15 22:50N 53°56' E 007°37'411.9
2018-Apr-15 22:29N 53°55' E 007°30'8310.0
2018-Apr-15 14:11N 53°31' E 005°15'3 8.3
2018-Apr-15 13:49N 53°30' E 005°10'3 8.4
2018-Apr-15 13:30N 53°29' E 005°06'4 8.4
2018-Apr-15 13:00N 53°28' E 004°60'4 8.5
2018-Apr-15 12:30N 53°26' E 004°53'4 8.6
2018-Apr-15 12:00N 53°24' E 004°46'4 8.2
2018-Apr-15 11:30N 53°22' E 004°41'5 8.9
2018-Apr-15 11:00N 53°18' E 004°37'16 9.2
2018-Apr-15 09:16N 53°04' E 004°25'2 9.4
2018-Apr-15 09:00N 53°02' E 004°23'5 9.4
2018-Apr-15 08:30N 52°57' E 004°20'5 9.3
2018-Apr-15 08:00N 52°53' E 004°16'5 9.4
2018-Apr-15 07:30N 52°49' E 004°12'8 9.6
2018-Apr-15 06:42N 52°43' E 004°05'2610.6
2018-Apr-15 04:15N 52°25' E 003°34'4011.7
2018-Apr-15 00:48N 51°55' E 002°50'412.2
2018-Apr-15 00:29N 51°52' E 002°46'712.0
2018-Apr-14 23:56N 51°47' E 002°39'911.7
2018-Apr-14 23:10N 51°40' E 002°29'311.4
2018-Apr-14 22:55N 51°38' E 002°26'511.1
2018-Apr-14 22:30N 51°35' E 002°21'510.6
2018-Apr-14 22:00N 51°31' E 002°15'5 9.7
2018-Apr-14 21:30N 51°27' E 002°10'5 9.3
2018-Apr-14 21:01N 51°24' E 002°05'4 8.9
2018-Apr-14 20:31N 51°21' E 001°60'4 8.4
2018-Apr-14 20:00N 51°18' E 001°55'4 7.8
2018-Apr-14 19:30N 51°15' E 001°51'4 7.7
2018-Apr-14 19:00N 51°12' E 001°47'3 7.0
2018-Apr-14 18:30N 51°09' E 001°44'4 7.0
2018-Apr-14 18:00N 51°06' E 001°40'4 7.0
2018-Apr-14 17:30N 51°03' E 001°37'4 7.5
2018-Apr-14 16:56N 50°60' E 001°33'4 8.2
2018-Apr-14 16:30N 50°57' E 001°30'5 8.7
2018-Apr-14 15:58N 50°53' E 001°27'5 9.4
2018-Apr-14 15:26N 50°48' E 001°24'4 9.8
2018-Apr-14 14:59N 50°44' E 001°22'9 9.7
2018-Apr-14 14:03N 50°37' E 001°13'110.0
2018-Apr-14 13:56N 50°37' E 001°11'410.2
2018-Apr-14 13:30N 50°34' E 001°06'510.1
2018-Apr-14 12:59N 50°30' E 000°60'610.1
2018-Apr-14 12:26N 50°29' E 000°51'410.2
2018-Apr-14 12:00N 50°28' E 000°45'510.3
2018-Apr-14 11:30N 50°26' E 000°37'510.5
2018-Apr-14 11:00N 50°25' E 000°29'510.6
2018-Apr-14 10:30N 50°23' E 000°21'510.9
2018-Apr-14 10:00N 50°22' E 000°12'611.4
2018-Apr-14 09:30N 50°21' E 000°04'611.8
2018-Apr-14 09:00N 50°19' W 000°05'612.3
2018-Apr-14 08:30N 50°17' W 000°14'612.8
2018-Apr-14 08:00N 50°16' W 000°24'713.2
2018-Apr-14 07:30N 50°14' W 000°34'713.4
2018-Apr-14 07:00N 50°12' W 000°44'713.5
2018-Apr-14 06:30N 50°10' W 000°54'713.5
2018-Apr-14 06:00N 50°08' W 001°04'713.2
2018-Apr-14 05:30N 50°07' W 001°14'612.6
2018-Apr-14 05:01N 50°05' W 001°24'612.1
2018-Apr-14 04:30N 50°03' W 001°33'611.3
2018-Apr-14 04:00N 50°02' W 001°41'510.5
2018-Apr-14 03:30N 50°00' W 001°49'5 9.6
2018-Apr-14 03:01N 49°60' W 001°56'4 8.9
2018-Apr-14 02:30N 49°59' W 002°03'4 8.3
2018-Apr-14 02:00N 49°58' W 002°09'4 7.9
2018-Apr-14 01:30N 49°57' W 002°15'7 7.9
2018-Apr-14 00:33N 49°55' W 002°27'0 8.0
2018-Apr-14 00:30N 49°55' W 002°27'5 8.2
2018-Apr-13 23:57N 49°54' W 002°34'4 8.5
2018-Apr-13 23:28N 49°53' W 002°40'4 8.9
2018-Apr-13 23:00N 49°52' W 002°47'5 9.2
2018-Apr-13 22:30N 49°51' W 002°53'5 9.6
2018-Apr-13 22:00N 49°50' W 003°01'5 9.8
2018-Apr-13 21:30N 49°50' W 003°08'510.0
2018-Apr-13 21:00N 49°49' W 003°16'510.1
2018-Apr-13 20:30N 49°51' W 003°23'510.5
2018-Apr-13 20:00N 49°54' W 003°31'510.8
2018-Apr-13 19:30N 49°55' W 003°39'611.0
2018-Apr-13 18:57N 49°56' W 003°48'511.2
2018-Apr-13 18:29N 49°57' W 003°56'611.3
2018-Apr-13 18:00N 49°58' W 004°05'611.4
2018-Apr-13 17:30N 49°58' W 004°14'611.4
2018-Apr-13 17:00N 49°59' W 004°22'611.4
2018-Apr-13 16:30N 50°00' W 004°31'611.4
2018-Apr-13 16:00N 50°01' W 004°40'3 2.8
2018-Apr-13 14:53N 50°01' W 004°45'1 2.9
2018-Apr-13 14:30N 50°01' W 004°46'6 8.6
2018-Apr-13 13:51N 50°00' W 004°55'410.5
2018-Apr-13 13:28N 50°01' W 005°00'4 9.4
2018-Apr-13 13:00N 50°06' W 005°01'2 4.4
2018-Apr-13 12:26N 50°07' W 005°04'0 0.1
2018-Apr-13 11:59N 50°07' W 005°04'0 0.2
2018-Apr-13 11:26N 50°07' W 005°04'0 0.1
2018-Apr-13 10:59N 50°07' W 005°04'0 0.1
2018-Apr-13 10:29N 50°07' W 005°04'0 0.1
2018-Apr-13 09:59N 50°07' W 005°04'0 0.0
2018-Apr-13 09:29N 50°07' W 005°04'0 0.1
2018-Apr-13 08:59N 50°07' W 005°04'0 0.0
2018-Apr-13 08:29N 50°07' W 005°04'0 0.0
2018-Apr-13 07:53N 50°07' W 005°04'0 0.0
2018-Apr-13 07:11N 50°07' W 005°04'0 0.0
2018-Apr-13 06:56N 50°07' W 005°04'0 0.1
2018-Apr-13 06:29N 50°07' W 005°04'0 0.1
2018-Apr-13 04:47N 50°07' W 005°04'0 0.0
2018-Apr-13 04:20N 50°07' W 005°04'0 0.0
2018-Apr-13 03:59N 50°07' W 005°04'0 0.0
2018-Apr-13 01:26N 50°07' W 005°04'0 0.0
2018-Apr-13 00:50N 50°07' W 005°04'0 0.1
2018-Apr-13 00:29N 50°07' W 005°04'0 0.1
2018-Apr-12 23:59N 50°07' W 005°04'0 0.0
2018-Apr-12 23:29N 50°07' W 005°04'0 0.1
2018-Apr-12 22:59N 50°07' W 005°04'0 0.1
2018-Apr-12 22:23N 50°07' W 005°04'0 0.0
2018-Apr-12 21:59N 50°07' W 005°04'0 0.0
2018-Apr-12 21:29N 50°07' W 005°04'0 0.0
2018-Apr-12 20:59N 50°07' W 005°04'0 0.0
2018-Apr-12 20:26N 50°07' W 005°04'0 0.0
2018-Apr-12 19:59N 50°07' W 005°04'0 0.0
2018-Apr-12 19:29N 50°07' W 005°04'0 0.0
2018-Apr-12 18:59N 50°07' W 005°04'0 0.0
2018-Apr-12 18:29N 50°07' W 005°04'0 0.0
2018-Apr-12 17:59N 50°07' W 005°04'0 0.0
2018-Apr-12 17:29N 50°07' W 005°04'0 0.0
2018-Apr-12 16:59N 50°07' W 005°04'0 0.0
2018-Apr-12 16:29N 50°07' W 005°04'0 0.1
2018-Apr-12 15:53N 50°07' W 005°04'0 0.0
2018-Apr-12 15:29N 50°07' W 005°04'0 0.0
2018-Apr-12 14:53N 50°07' W 005°04'0 0.0
2018-Apr-12 14:26N 50°07' W 005°04'0 0.1
2018-Apr-12 13:59N 50°07' W 005°04'0 0.1
2018-Apr-12 13:29N 50°07' W 005°04'0 0.0
2018-Apr-12 12:59N 50°07' W 005°04'0 0.0
2018-Apr-12 12:29N 50°07' W 005°04'0 0.1
2018-Apr-12 11:59N 50°07' W 005°04'0 0.0
2018-Apr-12 11:29N 50°07' W 005°04'0 0.0
2018-Apr-12 10:59N 50°07' W 005°04'0 0.0
2018-Apr-12 10:29N 50°07' W 005°04'0 0.0
2018-Apr-12 09:59N 50°07' W 005°04'0 0.0
2018-Apr-12 09:29N 50°07' W 005°04'0 0.0
2018-Apr-12 08:56N 50°07' W 005°04'0 0.0
2018-Apr-12 08:29N 50°07' W 005°04'0 0.0
2018-Apr-12 07:59N 50°07' W 005°04'0 0.0
2018-Apr-12 07:29N 50°07' W 005°04'0 0.0
2018-Apr-12 06:59N 50°07' W 005°04'0 0.0
2018-Apr-12 06:29N 50°07' W 005°04'0 0.0
2018-Apr-12 05:59N 50°07' W 005°04'0 0.0
2018-Apr-12 05:26N 50°07' W 005°04'0 0.0
2018-Apr-12 04:59N 50°07' W 005°04'0 0.0
2018-Apr-12 04:29N 50°07' W 005°04'0 0.0
2018-Apr-12 03:59N 50°07' W 005°04'0 0.0
2018-Apr-12 03:29N 50°07' W 005°04'0 0.0
2018-Apr-12 02:59N 50°07' W 005°04'0 0.0
2018-Apr-12 02:29N 50°07' W 005°04'0 0.0
2018-Apr-12 01:59N 50°07' W 005°04'0 0.0
2018-Apr-12 01:29N 50°07' W 005°04'0 0.0
2018-Apr-12 00:56N 50°07' W 005°04'0 0.0
2018-Apr-12 00:29N 50°07' W 005°04'0 0.0
2018-Apr-11 23:59N 50°07' W 005°04'0 0.0
2018-Apr-11 23:29N 50°07' W 005°04'0 0.0
2018-Apr-11 22:59N 50°07' W 005°04'0 0.0
2018-Apr-11 22:29N 50°07' W 005°04'0 0.0
2018-Apr-11 21:59N 50°07' W 005°04'0 0.0
2018-Apr-11 21:29N 50°07' W 005°04'0 0.0
2018-Apr-11 20:53N 50°07' W 005°04'0 0.0
2018-Apr-11 19:02N 50°07' W 005°04'  
Track history (hours):
 
Tides and Currents Weather Stations Pressure Air Temp Water Temp Dewpoint Dewpoint Depression Visibility Wind Speed Wind Dir Waves Ship Positions

M\v Kiran Anatolia

Last reported at 2018-Apr-21 19:00 UTC. Time now 2018-Apr-21 19:26 UTC.
Position N 53°39' E 009°31'.

Length 198 m; draft 13.6 m.

Type: Ship. MMSI: 229478000.

Date/timePositionNaut miles runAvg speedWind from/ knotsBaromVisibWave heightAir tempDewpointWater temp
2018-Apr-21 19:00N 53°39' E 009°31'2 4.5
2018-Apr-21 18:30N 53°42' E 009°30'4 7.6
2018-Apr-21 18:00N 53°44' E 009°26'4 8.4
2018-Apr-21 17:31N 53°48' E 009°23'510.8
2018-Apr-21 17:00N 53°52' E 009°16'510.4
2018-Apr-21 16:30N 53°53' E 009°07'510.1
2018-Apr-21 16:00N 53°51' E 008°59'611.6
2018-Apr-21 15:30N 53°50' E 008°50'5 9.5
2018-Apr-21 15:01N 53°53' E 008°43'611.5
2018-Apr-21 14:30N 53°57' E 008°37'612.0
2018-Apr-21 14:00N 53°59' E 008°27'612.4
2018-Apr-21 13:30N 53°60' E 008°16'612.2
2018-Apr-21 13:00N 53°59' E 008°06'612.4
2018-Apr-21 12:30N 54°01' E 007°56'611.8
2018-Apr-21 12:00N 54°03' E 007°47'1 0.9
2018-Apr-21 10:37N 54°04' E 007°46'0 0.3
2018-Apr-21 10:04N 54°04' E 007°46'0 0.2
2018-Apr-21 09:58N 54°04' E 007°46'0 0.0
2018-Apr-21 09:07N 54°04' E 007°45'0 0.1
2018-Apr-21 08:55N 54°04' E 007°45'0 0.0
2018-Apr-21 07:52N 54°04' E 007°45'0 0.0
2018-Apr-21 07:25N 54°04' E 007°45'0 0.0
2018-Apr-21 06:58N 54°04' E 007°45'0 0.0
2018-Apr-21 06:28N 54°04' E 007°45'0 0.0
2018-Apr-21 05:58N 54°04' E 007°45'0 0.0
2018-Apr-21 05:28N 54°04' E 007°45'0 0.1
2018-Apr-21 03:10N 54°04' E 007°46'0 0.1
2018-Apr-21 02:52N 54°04' E 007°46'0 0.0
2018-Apr-21 02:04N 54°04' E 007°46'0 0.0
2018-Apr-21 01:16N 54°04' E 007°46'0 0.0
2018-Apr-21 00:46N 54°04' E 007°46'0 0.0
2018-Apr-21 00:25N 54°04' E 007°46'0 0.0
2018-Apr-20 23:58N 54°04' E 007°46'0 0.0
2018-Apr-20 23:28N 54°04' E 007°46'0 0.0
2018-Apr-20 22:49N 54°04' E 007°46'0 0.0
2018-Apr-20 22:28N 54°04' E 007°46'0 0.1
2018-Apr-20 21:04N 54°04' E 007°45'0 0.0
2018-Apr-20 20:40N 54°04' E 007°45'0 0.0
2018-Apr-20 19:10N 54°04' E 007°45'0 0.1
2018-Apr-20 18:58N 54°04' E 007°45'0 0.0
2018-Apr-20 18:28N 54°04' E 007°45'0 0.0
2018-Apr-20 12:25N 54°04' E 007°46'0 0.0
2018-Apr-20 11:49N 54°04' E 007°46'0 0.0
2018-Apr-20 11:28N 54°04' E 007°46'0 0.0
2018-Apr-20 10:43N 54°04' E 007°46'0 0.0
2018-Apr-20 10:28N 54°04' E 007°46'0 0.1
2018-Apr-20 08:50N 54°04' E 007°46'0 0.0
2018-Apr-20 07:20N 54°04' E 007°45'0 0.0
2018-Apr-20 06:59N 54°04' E 007°45'0 0.0
2018-Apr-20 06:29N 54°04' E 007°45'0 0.0
2018-Apr-20 05:59N 54°04' E 007°45'0 0.0
2018-Apr-20 05:29N 54°04' E 007°45'0 0.0
2018-Apr-20 04:59N 54°04' E 007°45'0 0.0
2018-Apr-20 04:23N 54°04' E 007°45'0 0.0
2018-Apr-20 03:59N 54°04' E 007°45'0 0.1
2018-Apr-20 03:26N 54°04' E 007°45'0 0.3
2018-Apr-20 02:59N 54°04' E 007°46'0 0.2
2018-Apr-20 02:29N 54°04' E 007°46'0 0.0
2018-Apr-20 01:59N 54°04' E 007°46'0 0.0
2018-Apr-20 01:29N 54°04' E 007°46'0 0.0
2018-Apr-20 00:59N 54°04' E 007°46'0 0.0
2018-Apr-20 00:29N 54°04' E 007°46'0 0.0
2018-Apr-19 23:56N 54°04' E 007°46'0 0.1
2018-Apr-19 23:29N 54°04' E 007°46'0 0.0
2018-Apr-19 22:59N 54°04' E 007°46'0 0.2
2018-Apr-19 22:14N 54°05' E 007°46'0 0.3
2018-Apr-19 21:41N 54°04' E 007°45'0 0.0
2018-Apr-19 21:26N 54°04' E 007°45'0 0.0
2018-Apr-19 20:47N 54°04' E 007°45'0 0.1
2018-Apr-19 20:17N 54°04' E 007°45'0 0.0
2018-Apr-19 11:32N 54°04' E 007°46'0 0.1
2018-Apr-19 11:29N 54°04' E 007°46'0 0.0
2018-Apr-19 10:53N 54°04' E 007°46'0 0.0
2018-Apr-19 10:29N 54°04' E 007°46'0 0.0
2018-Apr-19 09:59N 54°04' E 007°46'0 0.1
2018-Apr-19 09:29N 54°04' E 007°46'0 0.3
2018-Apr-19 08:59N 54°04' E 007°45'0 0.1
2018-Apr-19 08:29N 54°04' E 007°45'0 0.0
2018-Apr-19 07:59N 54°04' E 007°45'0 0.0
2018-Apr-19 07:29N 54°04' E 007°45'0 0.0
2018-Apr-19 06:59N 54°04' E 007°45'0 0.0
2018-Apr-19 06:29N 54°04' E 007°45'0 0.0
2018-Apr-19 05:59N 54°04' E 007°45'0 0.0
2018-Apr-19 05:29N 54°04' E 007°45'0 0.0
2018-Apr-19 04:59N 54°04' E 007°45'0 0.0
2018-Apr-19 04:29N 54°04' E 007°45'0 0.0
2018-Apr-19 03:59N 54°04' E 007°45'0 0.0
2018-Apr-19 03:29N 54°04' E 007°45'0 0.0
2018-Apr-19 02:56N 54°04' E 007°45'0 0.0
2018-Apr-19 02:29N 54°04' E 007°45'0 0.2
2018-Apr-19 01:59N 54°05' E 007°46'0 0.1
2018-Apr-19 01:23N 54°04' E 007°46'0 0.1
2018-Apr-19 00:59N 54°04' E 007°46'0 0.1
2018-Apr-19 00:23N 54°04' E 007°46'0 0.0
2018-Apr-18 23:56N 54°04' E 007°46'0 0.0
2018-Apr-18 23:17N 54°04' E 007°46'0 0.0
2018-Apr-18 22:59N 54°04' E 007°46'0 0.0
2018-Apr-18 09:52N 54°04' E 007°46'0 0.0
2018-Apr-18 09:28N 54°04' E 007°46'0 0.0
2018-Apr-18 08:58N 54°04' E 007°46'0 0.1
2018-Apr-18 08:28N 54°04' E 007°46'0 0.1
2018-Apr-18 04:19N 54°04' E 007°45'0 0.0
2018-Apr-18 02:40N 54°05' E 007°46'0 0.2
2018-Apr-18 02:19N 54°05' E 007°46'0 0.1
2018-Apr-18 01:52N 54°05' E 007°46'0 0.1
2018-Apr-18 01:07N 54°05' E 007°46'0 0.1
2018-Apr-18 00:55N 54°05' E 007°46'0 0.1
2018-Apr-18 00:22N 54°04' E 007°46'0 0.1
2018-Apr-17 23:55N 54°04' E 007°46'0 0.0
2018-Apr-17 22:55N 54°04' E 007°46'0 0.0
2018-Apr-17 22:25N 54°04' E 007°46'0 0.0
2018-Apr-17 21:46N 54°04' E 007°46'0 0.0
2018-Apr-17 21:22N 54°04' E 007°46'0 0.0
2018-Apr-17 20:58N 54°04' E 007°46'0 0.0
2018-Apr-17 09:07N 54°04' E 007°46'0 0.0
2018-Apr-17 08:58N 54°04' E 007°46'0 0.0
2018-Apr-17 08:25N 54°04' E 007°46'0 0.0
2018-Apr-17 07:58N 54°04' E 007°46'0 0.4
2018-Apr-17 07:25N 54°05' E 007°46'0 0.2
2018-Apr-17 06:58N 54°04' E 007°45'0 0.0
2018-Apr-17 06:28N 54°04' E 007°45'0 0.0
2018-Apr-17 05:58N 54°04' E 007°45'0 0.0
2018-Apr-17 05:28N 54°04' E 007°45'0 0.0
2018-Apr-17 04:52N 54°04' E 007°45'0 0.0
2018-Apr-17 04:28N 54°04' E 007°45'0 0.0
2018-Apr-17 03:46N 54°04' E 007°45'0 0.0
2018-Apr-17 03:28N 54°04' E 007°45'0 0.0
2018-Apr-17 02:37N 54°04' E 007°45'0 0.0
2018-Apr-17 02:25N 54°04' E 007°45'0 0.0
2018-Apr-17 01:55N 54°04' E 007°45'0 0.2
2018-Apr-17 01:25N 54°05' E 007°46'0 0.2
2018-Apr-17 00:25N 54°04' E 007°46'0 0.1
2018-Apr-16 23:58N 54°04' E 007°46'0 0.0
2018-Apr-16 23:19N 54°04' E 007°46'0 0.1
2018-Apr-16 22:46N 54°04' E 007°46'0 0.0
2018-Apr-16 22:19N 54°04' E 007°46'0 0.0
2018-Apr-16 21:13N 54°04' E 007°46'0 0.0
2018-Apr-16 20:58N 54°04' E 007°46'0 0.0
2018-Apr-16 20:22N 54°04' E 007°46'0 0.1
2018-Apr-16 18:13N 54°04' E 007°45'0 0.1
2018-Apr-16 17:55N 54°04' E 007°45'0 0.0
2018-Apr-16 17:25N 54°04' E 007°45'0 0.0
2018-Apr-16 16:58N 54°04' E 007°45'0 0.0
2018-Apr-16 15:28N 54°04' E 007°45'0 0.1
2018-Apr-16 14:58N 54°04' E 007°45'0 0.1
2018-Apr-16 14:25N 54°04' E 007°45'0 0.0
2018-Apr-16 13:58N 54°04' E 007°45'0 0.1
2018-Apr-16 13:01N 54°05' E 007°46'0 0.1
2018-Apr-16 12:40N 54°05' E 007°46'0 0.0
2018-Apr-16 12:19N 54°05' E 007°46'0 0.1
2018-Apr-16 11:58N 54°05' E 007°46'0 0.1
2018-Apr-16 11:28N 54°05' E 007°46'0 0.0
2018-Apr-16 10:52N 54°04' E 007°46'0 0.0
2018-Apr-16 09:49N 54°04' E 007°46'0 0.0
2018-Apr-16 09:22N 54°04' E 007°46'0 0.0
2018-Apr-16 08:58N 54°04' E 007°46'0 0.0
2018-Apr-16 08:19N 54°04' E 007°46'0 0.1
2018-Apr-16 06:55N 54°04' E 007°45'0 0.1
2018-Apr-16 06:13N 54°04' E 007°45'0 0.0
2018-Apr-16 05:43N 54°04' E 007°45'0 0.1
2018-Apr-16 05:25N 54°04' E 007°45'0 0.1
2018-Apr-16 04:58N 54°04' E 007°45'0 0.0
2018-Apr-16 04:22N 54°04' E 007°45'0 0.1
2018-Apr-16 03:55N 54°04' E 007°45'0 0.0
2018-Apr-16 03:28N 54°04' E 007°45'0 0.0
2018-Apr-16 02:55N 54°04' E 007°45'0 0.0
2018-Apr-16 02:28N 54°04' E 007°45'0 0.0
2018-Apr-16 01:22N 54°05' E 007°45'0 0.0
2018-Apr-16 00:55N 54°05' E 007°45'0 0.2
2018-Apr-16 00:28N 54°04' E 007°45'2 2.9
2018-Apr-15 23:56N 54°03' E 007°46'4 7.1
2018-Apr-15 23:20N 53°59' E 007°46'611.6
2018-Apr-15 22:50N 53°56' E 007°37'411.9
2018-Apr-15 22:29N 53°55' E 007°30'8310.0
2018-Apr-15 14:11N 53°31' E 005°15'3 8.3
2018-Apr-15 13:49N 53°30' E 005°10'3 8.4
2018-Apr-15 13:30N 53°29' E 005°06'4 8.4
2018-Apr-15 13:00N 53°28' E 004°60'4 8.5
2018-Apr-15 12:30N 53°26' E 004°53'4 8.6
2018-Apr-15 12:00N 53°24' E 004°46'4 8.2
2018-Apr-15 11:30N 53°22' E 004°41'5 8.9
2018-Apr-15 11:00N 53°18' E 004°37'16 9.2
2018-Apr-15 09:16N 53°04' E 004°25'2 9.4
2018-Apr-15 09:00N 53°02' E 004°23'5 9.4
2018-Apr-15 08:30N 52°57' E 004°20'5 9.3
2018-Apr-15 08:00N 52°53' E 004°16'5 9.4
2018-Apr-15 07:30N 52°49' E 004°12'8 9.6
2018-Apr-15 06:42N 52°43' E 004°05'2610.6
2018-Apr-15 04:15N 52°25' E 003°34'4011.7
2018-Apr-15 00:48N 51°55' E 002°50'412.2
2018-Apr-15 00:29N 51°52' E 002°46'712.0
2018-Apr-14 23:56N 51°47' E 002°39'911.7
2018-Apr-14 23:10N 51°40' E 002°29'311.4
2018-Apr-14 22:55N 51°38' E 002°26'511.1
2018-Apr-14 22:30N 51°35' E 002°21'510.6
2018-Apr-14 22:00N 51°31' E 002°15'5 9.7
2018-Apr-14 21:30N 51°27' E 002°10'5 9.3
2018-Apr-14 21:01N 51°24' E 002°05'4 8.9
2018-Apr-14 20:31N 51°21' E 001°60'4 8.4
2018-Apr-14 20:00N 51°18' E 001°55'4 7.8
2018-Apr-14 19:30N 51°15' E 001°51'4 7.7
2018-Apr-14 19:00N 51°12' E 001°47'3 7.0
2018-Apr-14 18:30N 51°09' E 001°44'4 7.0
2018-Apr-14 18:00N 51°06' E 001°40'4 7.0
2018-Apr-14 17:30N 51°03' E 001°37'4 7.5
2018-Apr-14 16:56N 50°60' E 001°33'4 8.2
2018-Apr-14 16:30N 50°57' E 001°30'5 8.7
2018-Apr-14 15:58N 50°53' E 001°27'5 9.4
2018-Apr-14 15:26N 50°48' E 001°24'4 9.8
2018-Apr-14 14:59N 50°44' E 001°22'9 9.7
2018-Apr-14 14:03N 50°37' E 001°13'110.0
2018-Apr-14 13:56N 50°37' E 001°11'410.2
2018-Apr-14 13:30N 50°34' E 001°06'510.1
2018-Apr-14 12:59N 50°30' E 000°60'610.1
2018-Apr-14 12:26N 50°29' E 000°51'410.2
2018-Apr-14 12:00N 50°28' E 000°45'510.3
2018-Apr-14 11:30N 50°26' E 000°37'510.5
2018-Apr-14 11:00N 50°25' E 000°29'510.6
2018-Apr-14 10:30N 50°23' E 000°21'510.9
2018-Apr-14 10:00N 50°22' E 000°12'611.4
2018-Apr-14 09:30N 50°21' E 000°04'611.8
2018-Apr-14 09:00N 50°19' W 000°05'612.3
2018-Apr-14 08:30N 50°17' W 000°14'612.8
2018-Apr-14 08:00N 50°16' W 000°24'713.2
2018-Apr-14 07:30N 50°14' W 000°34'713.4
2018-Apr-14 07:00N 50°12' W 000°44'713.5
2018-Apr-14 06:30N 50°10' W 000°54'713.5
2018-Apr-14 06:00N 50°08' W 001°04'713.2
2018-Apr-14 05:30N 50°07' W 001°14'612.6
2018-Apr-14 05:01N 50°05' W 001°24'612.1
2018-Apr-14 04:30N 50°03' W 001°33'611.3
2018-Apr-14 04:00N 50°02' W 001°41'510.5
2018-Apr-14 03:30N 50°00' W 001°49'5 9.6
2018-Apr-14 03:01N 49°60' W 001°56'4 8.9
2018-Apr-14 02:30N 49°59' W 002°03'4 8.3
2018-Apr-14 02:00N 49°58' W 002°09'4 7.9
2018-Apr-14 01:30N 49°57' W 002°15'7 7.9
2018-Apr-14 00:33N 49°55' W 002°27'0 8.0
2018-Apr-14 00:30N 49°55' W 002°27'5 8.2
2018-Apr-13 23:57N 49°54' W 002°34'4 8.5
2018-Apr-13 23:28N 49°53' W 002°40'4 8.9
2018-Apr-13 23:00N 49°52' W 002°47'5 9.2
2018-Apr-13 22:30N 49°51' W 002°53'5 9.6
2018-Apr-13 22:00N 49°50' W 003°01'5 9.8
2018-Apr-13 21:30N 49°50' W 003°08'510.0
2018-Apr-13 21:00N 49°49' W 003°16'510.1
2018-Apr-13 20:30N 49°51' W 003°23'510.5
2018-Apr-13 20:00N 49°54' W 003°31'510.8
2018-Apr-13 19:30N 49°55' W 003°39'611.0
2018-Apr-13 18:57N 49°56' W 003°48'511.2
2018-Apr-13 18:29N 49°57' W 003°56'611.3
2018-Apr-13 18:00N 49°58' W 004°05'611.4
2018-Apr-13 17:30N 49°58' W 004°14'611.4
2018-Apr-13 17:00N 49°59' W 004°22'611.4
2018-Apr-13 16:30N 50°00' W 004°31'611.4
2018-Apr-13 16:00N 50°01' W 004°40'3 2.8
2018-Apr-13 14:53N 50°01' W 004°45'1 2.9
2018-Apr-13 14:30N 50°01' W 004°46'6 8.6
2018-Apr-13 13:51N 50°00' W 004°55'410.5
2018-Apr-13 13:28N 50°01' W 005°00'4 9.4
2018-Apr-13 13:00N 50°06' W 005°01'2 4.4
2018-Apr-13 12:26N 50°07' W 005°04'0 0.1
2018-Apr-13 11:59N 50°07' W 005°04'0 0.2
2018-Apr-13 11:26N 50°07' W 005°04'0 0.1
2018-Apr-13 10:59N 50°07' W 005°04'0 0.1
2018-Apr-13 10:29N 50°07' W 005°04'0 0.1
2018-Apr-13 09:59N 50°07' W 005°04'0 0.0
2018-Apr-13 09:29N 50°07' W 005°04'0 0.1
2018-Apr-13 08:59N 50°07' W 005°04'0 0.0
2018-Apr-13 08:29N 50°07' W 005°04'0 0.0
2018-Apr-13 07:53N 50°07' W 005°04'0 0.0
2018-Apr-13 07:11N 50°07' W 005°04'0 0.0
2018-Apr-13 06:56N 50°07' W 005°04'0 0.1
2018-Apr-13 06:29N 50°07' W 005°04'0 0.1
2018-Apr-13 04:47N 50°07' W 005°04'0 0.0
2018-Apr-13 04:20N 50°07' W 005°04'0 0.0
2018-Apr-13 03:59N 50°07' W 005°04'0 0.0
2018-Apr-13 01:26N 50°07' W 005°04'0 0.0
2018-Apr-13 00:50N 50°07' W 005°04'0 0.1
2018-Apr-13 00:29N 50°07' W 005°04'0 0.1
2018-Apr-12 23:59N 50°07' W 005°04'0 0.0
2018-Apr-12 23:29N 50°07' W 005°04'0 0.1
2018-Apr-12 22:59N 50°07' W 005°04'0 0.1
2018-Apr-12 22:23N 50°07' W 005°04'0 0.0
2018-Apr-12 21:59N 50°07' W 005°04'0 0.0
2018-Apr-12 21:29N 50°07' W 005°04'0 0.0
2018-Apr-12 20:59N 50°07' W 005°04'0 0.0
2018-Apr-12 20:26N 50°07' W 005°04'0 0.0
2018-Apr-12 19:59N 50°07' W 005°04'0 0.0
2018-Apr-12 19:29N 50°07' W 005°04'0 0.0
2018-Apr-12 18:59N 50°07' W 005°04'0 0.0
2018-Apr-12 18:29N 50°07' W 005°04'0 0.0
2018-Apr-12 17:59N 50°07' W 005°04'0 0.0
2018-Apr-12 17:29N 50°07' W 005°04'0 0.0
2018-Apr-12 16:59N 50°07' W 005°04'0 0.0
2018-Apr-12 16:29N 50°07' W 005°04'0 0.1
2018-Apr-12 15:53N 50°07' W 005°04'0 0.0
2018-Apr-12 15:29N 50°07' W 005°04'0 0.0
2018-Apr-12 14:53N 50°07' W 005°04'0 0.0
2018-Apr-12 14:26N 50°07' W 005°04'0 0.1
2018-Apr-12 13:59N 50°07' W 005°04'0 0.1
2018-Apr-12 13:29N 50°07' W 005°04'0 0.0
2018-Apr-12 12:59N 50°07' W 005°04'0 0.0
2018-Apr-12 12:29N 50°07' W 005°04'0 0.1
2018-Apr-12 11:59N 50°07' W 005°04'0 0.0
2018-Apr-12 11:29N 50°07' W 005°04'0 0.0
2018-Apr-12 10:59N 50°07' W 005°04'0 0.0
2018-Apr-12 10:29N 50°07' W 005°04'0 0.0
2018-Apr-12 09:59N 50°07' W 005°04'0 0.0
2018-Apr-12 09:29N 50°07' W 005°04'0 0.0
2018-Apr-12 08:56N 50°07' W 005°04'0 0.0
2018-Apr-12 08:29N 50°07' W 005°04'0 0.0
2018-Apr-12 07:59N 50°07' W 005°04'0 0.0
2018-Apr-12 07:29N 50°07' W 005°04'0 0.0
2018-Apr-12 06:59N 50°07' W 005°04'0 0.0
2018-Apr-12 06:29N 50°07' W 005°04'0 0.0
2018-Apr-12 05:59N 50°07' W 005°04'0 0.0
2018-Apr-12 05:26N 50°07' W 005°04'0 0.0
2018-Apr-12 04:59N 50°07' W 005°04'0 0.0
2018-Apr-12 04:29N 50°07' W 005°04'0 0.0
2018-Apr-12 03:59N 50°07' W 005°04'0 0.0
2018-Apr-12 03:29N 50°07' W 005°04'0 0.0
2018-Apr-12 02:59N 50°07' W 005°04'0 0.0
2018-Apr-12 02:29N 50°07' W 005°04'0 0.0
2018-Apr-12 01:59N 50°07' W 005°04'0 0.0
2018-Apr-12 01:29N 50°07' W 005°04'0 0.0
2018-Apr-12 00:56N 50°07' W 005°04'0 0.0
2018-Apr-12 00:29N 50°07' W 005°04'0 0.0
2018-Apr-11 23:59N 50°07' W 005°04'0 0.0
2018-Apr-11 23:29N 50°07' W 005°04'0 0.0
2018-Apr-11 22:59N 50°07' W 005°04'0 0.0
2018-Apr-11 22:29N 50°07' W 005°04'0 0.0
2018-Apr-11 21:59N 50°07' W 005°04'0 0.0
2018-Apr-11 21:29N 50°07' W 005°04'0 0.0
2018-Apr-11 20:53N 50°07' W 005°04'0 0.0
2018-Apr-11 19:02N 50°07' W 005°04'  

Dump ship's entire track history